Time;durP1;ratioP1;P1;durP2;ratioP2;P2;SDS_P1;SDS_P2;PMS_P1;PMS_P2;Temp;Humidity;BMP_temperature;BMP_pressure;BME280_temperature;BME280_humidity;BME280_pressure;Samples;Min_cycle;Max_cycle;Signal;HPM_P1;HPM_P2
2022/12/28 00:01:12;;;;;;;2.27;1.33;;;6.60;99.90;;;;;;4971947;28;20279;-65
2022/12/28 00:03:41;;;;;;;4.17;1.80;;;6.60;99.90;;;;;;4971618;28;20538;-65
2022/12/28 00:06:08;;;;;;;5.60;1.83;;;6.60;99.90;;;;;;4969948;28;20217;-66
2022/12/28 00:08:35;;;;;;;3.70;1.30;;;6.60;99.90;;;;;;4968488;28;20204;-66
2022/12/28 00:11:05;;;;;;;5.67;2.10;;;6.60;99.90;;;;;;4955253;28;20246;-65
2022/12/28 00:13:33;;;;;;;4.07;1.37;;;6.70;99.90;;;;;;4952275;28;20424;-65
2022/12/28 00:16:07;;;;;;;4.10;1.60;;;6.70;99.90;;;;;;4971699;28;20197;-65
2022/12/28 00:18:34;;;;;;;4.83;1.90;;;6.70;99.90;;;;;;4967561;28;20558;-66
2022/12/28 00:21:03;;;;;;;4.13;1.67;;;6.70;99.90;;;;;;4969131;28;20206;-66
2022/12/28 00:23:31;;;;;;;4.20;1.80;;;6.80;99.90;;;;;;4969897;28;20211;-66
2022/12/28 00:26:05;;;;;;;3.50;1.83;;;6.80;99.90;;;;;;4956998;28;20216;-66
2022/12/28 00:28:33;;;;;;;4.07;2.00;;;6.80;99.90;;;;;;4956955;28;20406;-65
2022/12/28 00:31:00;;;;;;;5.17;2.50;;;6.80;99.90;;;;;;4970585;28;20641;-66
2022/12/28 00:33:27;;;;;;;7.17;2.50;;;6.80;99.90;;;;;;4963479;28;20205;-66
2022/12/28 00:35:55;;;;;;;3.50;2.20;;;6.70;99.90;;;;;;4968812;28;20196;-66
2022/12/28 00:38:24;;;;;;;3.30;1.73;;;6.70;99.90;;;;;;4968665;28;20231;-66
2022/12/28 00:40:52;;;;;;;6.10;1.90;;;6.70;99.90;;;;;;4968806;28;20193;-66
2022/12/28 00:43:19;;;;;;;4.67;2.17;;;6.80;99.90;;;;;;4968918;28;20648;-67
2022/12/28 00:45:47;;;;;;;3.27;1.90;;;6.80;99.90;;;;;;4970630;28;20216;-67
2022/12/28 00:48:16;;;;;;;3.53;1.90;;;6.80;99.90;;;;;;4968404;28;20208;-67
2022/12/28 00:50:44;;;;;;;7.07;2.37;;;6.80;99.90;;;;;;4971077;28;20196;-65
2022/12/28 00:53:12;;;;;;;5.77;2.57;;;6.80;99.90;;;;;;4972440;28;20197;-66
2022/12/28 00:55:41;;;;;;;4.47;2.60;;;6.90;99.90;;;;;;4951570;28;20674;-66
2022/12/28 00:58:09;;;;;;;7.07;2.73;;;6.80;99.90;;;;;;4971001;28;20192;-67
2022/12/28 01:00:37;;;;;;;4.60;2.40;;;6.80;99.90;;;;;;4971781;28;20188;-67
2022/12/28 01:03:05;;;;;;;9.30;2.80;;;6.80;99.90;;;;;;4969150;28;20192;-67
2022/12/28 01:05:32;;;;;;;6.57;2.57;;;6.80;99.90;;;;;;4971183;28;20220;-67
2022/12/28 01:08:00;;;;;;;4.90;2.23;;;6.80;99.90;;;;;;4969301;28;20208;-67
2022/12/28 01:10:27;;;;;;;4.03;2.10;;;6.80;99.90;;;;;;4952215;28;20211;-67
2022/12/28 01:13:01;;;;;;;3.40;2.10;;;6.80;99.90;;;;;;4971169;28;20546;-67
2022/12/28 01:15:28;;;;;;;4.57;2.10;;;6.80;99.90;;;;;;4953509;28;20224;-67
2022/12/28 01:17:55;;;;;;;5.30;1.87;;;6.80;99.90;;;;;;4967292;28;20193;-66
2022/12/28 01:20:22;;;;;;;5.43;2.63;;;6.90;99.90;;;;;;4957798;28;20301;-66
2022/12/28 01:22:50;;;;;;;6.83;3.10;;;6.90;99.90;;;;;;4970608;28;20283;-67
2022/12/28 01:25:17;;;;;;;6.50;3.20;;;6.80;99.90;;;;;;4961033;28;20224;-65
2022/12/28 01:27:44;;;;;;;7.17;3.33;;;6.90;99.90;;;;;;4970568;28;20200;-66
2022/12/28 01:30:14;;;;;;;8.77;3.73;;;6.80;99.90;;;;;;4959175;28;20215;-65
2022/12/28 01:32:41;;;;;;;8.10;3.37;;;6.80;99.90;;;;;;4959190;28;20205;-66
2022/12/28 01:35:09;;;;;;;6.13;3.43;;;6.80;99.90;;;;;;4970617;28;20231;-66
2022/12/28 01:37:36;;;;;;;5.90;3.20;;;6.80;99.90;;;;;;4951791;28;20415;-66
2022/12/28 01:40:05;;;;;;;4.47;2.80;;;6.80;99.90;;;;;;4969847;28;20197;-67
2022/12/28 01:42:33;;;;;;;4.47;2.80;;;6.80;99.90;;;;;;4957132;28;20197;-65
2022/12/28 01:45:17;;;;;;;4.47;2.63;;;6.80;99.90;;;;;;4965841;28;20574;-66
2022/12/28 01:47:46;;;;;;;4.40;2.27;;;6.80;99.90;;;;;;4969534;28;20658;-66
2022/12/28 01:50:17;;;;;;;3.03;2.30;;;6.80;99.90;;;;;;4969348;28;20200;-66
2022/12/28 01:52:49;;;;;;;4.70;2.50;;;6.80;99.90;;;;;;4966338;28;20204;-66
2022/12/28 01:55:19;;;;;;;5.43;3.23;;;6.90;99.90;;;;;;4951221;28;20270;-66
2022/12/28 01:57:51;;;;;;;5.37;2.90;;;6.90;99.90;;;;;;4969303;28;20697;-66
2022/12/28 02:00:20;;;;;;;4.53;2.77;;;6.90;99.90;;;;;;4957570;28;20352;-65
2022/12/28 02:02:52;;;;;;;4.73;2.80;;;6.90;99.90;;;;;;4969807;28;20212;-66
2022/12/28 02:05:22;;;;;;;5.30;2.33;;;6.90;99.90;;;;;;4959576;28;20321;-65
2022/12/28 02:07:55;;;;;;;7.17;2.63;;;6.90;99.90;;;;;;4969168;28;20201;-65
2022/12/28 02:10:25;;;;;;;6.10;2.80;;;6.90;99.90;;;;;;4960241;28;20212;-67
2022/12/28 02:12:54;;;;;;;3.40;2.57;;;6.90;99.90;;;;;;4953881;28;20200;-67
2022/12/28 02:15:23;;;;;;;2.90;2.17;;;7.00;99.90;;;;;;4968594;28;20284;-66
2022/12/28 02:17:51;;;;;;;3.60;2.20;;;6.90;99.90;;;;;;4961416;28;20200;-65
2022/12/28 02:20:18;;;;;;;3.53;2.50;;;7.00;99.90;;;;;;4967665;28;20204;-66
2022/12/28 02:23:01;;;;;;;4.13;2.70;;;6.90;99.90;;;;;;4967032;28;20196;-66
2022/12/28 02:25:59;;;;;;;5.57;2.63;;;6.90;99.90;;;;;;4969157;28;20282;-66
2022/12/28 02:28:58;;;;;;;1.73;1.63;;;6.90;99.90;;;;;;4941659;28;20255;-67
2022/12/28 02:31:33;;;;;;;4.03;2.50;;;6.90;99.90;;;;;;4952306;28;20197;-67
2022/12/28 02:34:09;;;;;;;5.33;2.90;;;6.90;99.90;;;;;;4968673;28;20236;-66
2022/12/28 02:36:41;;;;;;;7.60;3.23;;;6.90;99.90;;;;;;4967013;28;20188;-66
2022/12/28 02:39:15;;;;;;;7.07;3.10;;;6.90;99.90;;;;;;4969234;28;20184;-66
2022/12/28 02:41:45;;;;;;;4.23;2.57;;;6.90;99.90;;;;;;4966482;28;20205;-66
2022/12/28 02:50:04;;;;;;;6.90;3.13;;;6.90;99.90;;;;;;4951178;28;20208;-66
2022/12/28 02:53:12;;;;;;;10.83;4.50;;;6.70;99.90;;;;;;4935930;28;20213;-65
2022/12/28 02:56:06;;;;;;;10.33;4.23;;;6.80;99.90;;;;;;4951096;28;20199;-65
2022/12/28 02:59:15;;;;;;;13.20;4.60;;;6.80;99.90;;;;;;4965943;28;20516;-66
2022/12/28 03:02:07;;;;;;;6.60;3.50;;;6.80;99.90;;;;;;4979482;28;20295;-65
2022/12/28 03:04:48;;;;;;;5.40;3.03;;;6.80;99.90;;;;;;4947479;28;20209;-66
2022/12/28 03:10:12;;;;;;;7.87;2.93;;;6.80;99.90;;;;;;4977721;28;20200;-66
2022/12/28 03:12:45;;;;;;;7.40;3.27;;;6.90;99.90;;;;;;4965617;28;20207;-66
2022/12/28 03:15:28;;;;;;;5.40;2.83;;;6.90;99.90;;;;;;4951993;28;20674;-67
2022/12/28 03:31:59;;;;;;;7.30;3.10;;;6.90;99.90;;;;;;4948949;28;20265;-66
2022/12/28 03:34:28;;;;;;;6.23;2.87;;;6.90;99.90;;;;;;4968291;28;20263;-66
2022/12/28 03:37:01;;;;;;;3.70;2.40;;;6.90;99.90;;;;;;4961822;28;20204;-67
2022/12/28 03:39:38;;;;;;;6.13;2.87;;;6.90;99.90;;;;;;4970309;28;20542;-67
2022/12/28 03:45:05;;;;;;;5.03;2.13;;;6.80;99.90;;;;;;4955147;28;20193;-67
2022/12/28 03:47:35;;;;;;;8.00;2.60;;;6.70;99.90;;;;;;4951305;28;20712;-66
2022/12/28 03:50:05;;;;;;;6.43;2.10;;;6.70;99.90;;;;;;4973492;28;20244;-67
2022/12/28 03:52:34;;;;;;;5.60;2.00;;;6.70;99.90;;;;;;4954520;28;20200;-66
2022/12/28 03:55:05;;;;;;;10.00;2.50;;;6.70;99.90;;;;;;4957230;28;20946;-66
2022/12/28 03:57:32;;;;;;;6.87;2.30;;;6.70;99.90;;;;;;4953985;28;20200;-67
2022/12/28 04:00:01;;;;;;;5.53;2.20;;;6.70;99.90;;;;;;4956270;28;20639;-67
2022/12/28 04:02:29;;;;;;;5.50;2.30;;;6.70;99.90;;;;;;4956863;28;20312;-66
2022/12/28 04:04:56;;;;;;;8.23;2.80;;;6.70;99.90;;;;;;4959391;28;20255;-66
2022/12/28 04:07:25;;;;;;;5.37;2.40;;;6.70;99.90;;;;;;4971568;28;20208;-66
2022/12/28 04:09:52;;;;;;;2.80;1.73;;;6.60;99.90;;;;;;4959382;28;20195;-66
2022/12/28 04:12:20;;;;;;;4.80;2.07;;;6.60;99.90;;;;;;4957039;28;20291;-66
2022/12/28 04:15:07;;;;;;;3.90;2.17;;;6.70;99.90;;;;;;4972381;28;20210;-66
2022/12/28 04:17:35;;;;;;;3.37;2.03;;;6.70;99.90;;;;;;4952142;28;20215;-67
2022/12/28 04:20:02;;;;;;;4.00;1.87;;;6.70;99.90;;;;;;4972089;28;20242;-66
2022/12/28 04:22:31;;;;;;;5.00;2.27;;;6.70;99.90;;;;;;4962862;28;20204;-67
2022/12/28 04:24:59;;;;;;;3.17;1.80;;;6.70;99.90;;;;;;4960686;28;20201;-67
2022/12/28 04:27:27;;;;;;;5.73;1.97;;;6.70;99.90;;;;;;4978407;28;20311;-67
2022/12/28 04:30:03;;;;;;;5.20;1.50;;;6.70;99.90;;;;;;4955803;28;20562;-67
2022/12/28 04:32:34;;;;;;;2.07;1.47;;;6.60;99.90;;;;;;4971099;28;20648;-67
2022/12/28 04:35:02;;;;;;;2.67;1.50;;;6.60;99.90;;;;;;4954431;28;20221;-67
2022/12/28 04:37:36;;;;;;;2.40;1.60;;;6.60;99.90;;;;;;4957364;28;20275;-66
2022/12/28 04:40:04;;;;;;;3.93;1.83;;;6.60;99.90;;;;;;4970596;28;20185;-67
2022/12/28 04:42:32;;;;;;;3.53;1.60;;;6.50;99.90;;;;;;4970573;28;20216;-67
2022/12/28 04:44:59;;;;;;;5.03;1.50;;;6.50;99.90;;;;;;4952872;28;20573;-67
2022/12/28 04:47:26;;;;;;;6.63;1.73;;;6.50;99.90;;;;;;4970689;28;20588;-65
2022/12/28 04:49:53;;;;;;;3.57;1.50;;;6.40;99.90;;;;;;4971648;28;20540;-66
2022/12/28 04:52:21;;;;;;;1.40;1.10;;;6.40;99.90;;;;;;4968678;28;20210;-65
2022/12/28 04:54:50;;;;;;;1.87;1.13;;;6.40;99.90;;;;;;4971545;28;20557;-66
2022/12/28 04:57:17;;;;;;;3.33;1.40;;;6.50;99.90;;;;;;4970738;28;20181;-65
2022/12/28 04:59:44;;;;;;;4.37;1.67;;;6.50;99.90;;;;;;4961200;28;20189;-65
2022/12/28 05:02:11;;;;;;;4.63;1.53;;;6.40;99.90;;;;;;4954347;28;20208;-63
2022/12/28 05:04:40;;;;;;;1.53;1.37;;;6.40;99.90;;;;;;4968710;28;20839;-65
2022/12/28 05:07:08;;;;;;;2.00;1.40;;;6.40;99.90;;;;;;4970942;28;20772;-66
2022/12/28 05:09:35;;;;;;;3.33;1.40;;;6.40;99.90;;;;;;4970500;28;20688;-65
2022/12/28 05:12:04;;;;;;;3.70;1.60;;;6.40;99.90;;;;;;4964801;28;20211;-65
2022/12/28 05:14:31;;;;;;;4.30;1.23;;;6.40;99.90;;;;;;4969909;28;20193;-66
2022/12/28 05:16:58;;;;;;;6.30;2.10;;;6.30;99.90;;;;;;4970970;28;20196;-65
2022/12/28 05:19:26;;;;;;;2.57;1.60;;;6.30;99.90;;;;;;4967298;28;20197;-66
2022/12/28 05:21:53;;;;;;;1.73;1.30;;;6.20;99.90;;;;;;4970048;28;20562;-66
2022/12/28 05:24:21;;;;;;;4.67;1.90;;;6.20;99.90;;;;;;4953301;28;20311;-66
2022/12/28 05:26:48;;;;;;;2.27;1.73;;;6.20;99.90;;;;;;4966850;28;20216;-65
2022/12/28 05:29:16;;;;;;;4.07;1.60;;;6.20;99.90;;;;;;4969622;28;20192;-65
2022/12/28 05:31:43;;;;;;;3.93;2.23;;;6.20;99.90;;;;;;4955097;28;20223;-65
2022/12/28 05:34:11;;;;;;;3.20;1.80;;;6.20;99.90;;;;;;4951263;28;20705;-65
2022/12/28 05:36:38;;;;;;;4.43;2.03;;;6.10;99.90;;;;;;4970427;28;20666;-65
2022/12/28 05:39:06;;;;;;;3.83;1.90;;;6.10;99.90;;;;;;4951431;28;20332;-66
2022/12/28 05:41:33;;;;;;;3.93;2.10;;;6.10;99.90;;;;;;4970366;28;20238;-66
2022/12/28 05:44:00;;;;;;;3.47;2.00;;;6.10;99.90;;;;;;4967434;28;20200;-66
2022/12/28 05:46:30;;;;;;;5.90;2.27;;;6.10;99.90;;;;;;4954023;28;20219;-66
2022/12/28 05:48:58;;;;;;;2.33;1.83;;;6.10;99.90;;;;;;4968462;28;20203;-66
2022/12/28 05:51:27;;;;;;;2.87;1.80;;;6.10;99.90;;;;;;4956186;28;20208;-66
2022/12/28 05:53:55;;;;;;;7.20;2.40;;;6.10;99.90;;;;;;4966070;28;20305;-66
2022/12/28 05:56:24;;;;;;;3.83;2.10;;;6.10;99.90;;;;;;4969721;28;20208;-66
2022/12/28 05:58:54;;;;;;;4.90;2.50;;;6.10;99.90;;;;;;4951849;28;20203;-66
2022/12/28 06:01:23;;;;;;;3.20;2.53;;;6.10;99.90;;;;;;4966682;28;20254;-66
2022/12/28 06:03:55;;;;;;;6.30;3.03;;;6.10;99.90;;;;;;4968795;28;20291;-65
2022/12/28 06:06:23;;;;;;;6.60;3.47;;;6.10;99.90;;;;;;4970020;28;20200;-66
2022/12/28 06:08:50;;;;;;;3.17;2.70;;;6.10;99.90;;;;;;4967186;28;20641;-66
2022/12/28 06:11:19;;;;;;;5.03;2.97;;;6.00;99.90;;;;;;4969984;28;20205;-66
2022/12/28 06:13:48;;;;;;;4.47;3.17;;;6.00;99.90;;;;;;4953217;28;20209;-65
2022/12/28 06:16:17;;;;;;;5.00;3.47;;;6.00;99.90;;;;;;4968164;28;20658;-66
2022/12/28 06:18:45;;;;;;;9.60;4.37;;;6.10;99.90;;;;;;4969100;28;20215;-67
2022/12/28 06:21:16;;;;;;;10.93;5.00;;;6.10;99.90;;;;;;4966322;28;20203;-66
2022/12/28 06:23:44;;;;;;;8.90;4.77;;;6.10;99.90;;;;;;4969156;28;20289;-66
2022/12/28 06:26:13;;;;;;;10.67;5.60;;;6.00;99.90;;;;;;4962275;28;20200;-65
2022/12/28 06:28:42;;;;;;;18.53;6.60;;;6.00;99.90;;;;;;4949614;28;20637;-65
2022/12/28 06:31:12;;;;;;;10.60;6.23;;;5.90;99.90;;;;;;4976644;28;20203;-65
2022/12/28 06:33:40;;;;;;;9.53;5.97;;;5.80;99.90;;;;;;4968682;28;20286;-65
2022/12/28 06:36:13;;;;;;;9.23;5.10;;;5.80;99.90;;;;;;4966618;28;20212;-64
2022/12/28 06:38:41;;;;;;;10.50;4.77;;;5.80;99.90;;;;;;4968453;28;20190;-66
2022/12/28 06:41:11;;;;;;;9.43;5.10;;;5.80;99.90;;;;;;4967975;28;20206;-66
2022/12/28 06:43:40;;;;;;;9.43;4.80;;;5.90;99.90;;;;;;4963995;28;20198;-66
2022/12/28 06:46:07;;;;;;;7.27;4.23;;;5.90;99.90;;;;;;4969046;28;20206;-66
2022/12/28 06:48:38;;;;;;;6.33;4.00;;;5.90;99.90;;;;;;4967998;28;20200;-64
2022/12/28 06:51:10;;;;;;;10.20;5.67;;;5.90;99.90;;;;;;4954365;28;20640;-64
2022/12/28 06:53:39;;;;;;;11.13;5.87;;;5.90;99.90;;;;;;4952001;28;20291;-64
2022/12/28 06:56:08;;;;;;;13.87;5.67;;;5.90;99.90;;;;;;4965535;28;20204;-64
2022/12/28 06:58:35;;;;;;;14.67;6.13;;;5.90;99.90;;;;;;4967172;28;20199;-64
2022/12/28 07:01:07;;;;;;;18.87;8.60;;;5.90;99.90;;;;;;4968493;28;20214;-64
2022/12/28 07:03:35;;;;;;;22.30;8.57;;;5.80;99.90;;;;;;4953870;28;20587;-65
2022/12/28 07:06:03;;;;;;;16.53;7.70;;;5.80;99.90;;;;;;4966191;28;20199;-66
2022/12/28 07:08:31;;;;;;;14.30;7.87;;;5.80;99.90;;;;;;4982712;28;20223;-66
2022/12/28 07:11:04;;;;;;;10.73;6.77;;;5.80;99.90;;;;;;4973197;28;20279;-65
2022/12/28 07:13:31;;;;;;;14.50;7.23;;;5.80;99.90;;;;;;4972147;28;20213;-65
2022/12/28 07:16:02;;;;;;;17.57;8.40;;;5.80;99.90;;;;;;4975301;28;20649;-65
2022/12/28 07:18:30;;;;;;;15.83;7.27;;;5.80;99.90;;;;;;4971616;28;20203;-66
2022/12/28 07:21:03;;;;;;;20.90;8.23;;;5.70;99.90;;;;;;4975320;28;20194;-66
2022/12/28 07:23:31;;;;;;;18.53;8.53;;;5.70;99.90;;;;;;4973941;28;20242;-66
2022/12/28 07:26:04;;;;;;;24.50;10.10;;;5.60;99.90;;;;;;4971286;28;20225;-66
2022/12/28 07:28:32;;;;;;;23.60;9.97;;;5.60;99.90;;;;;;4974282;28;20604;-66
2022/12/28 07:31:04;;;;;;;13.33;8.17;;;5.50;99.90;;;;;;4975390;28;20609;-66
2022/12/28 07:33:31;;;;;;;15.57;8.57;;;5.50;99.90;;;;;;4973424;28;20538;-67
2022/12/28 07:35:59;;;;;;;18.83;9.27;;;5.40;99.90;;;;;;4974892;28;20204;-67
2022/12/28 07:38:26;;;;;;;19.53;8.60;;;5.40;99.90;;;;;;4974946;28;20186;-66
2022/12/28 07:40:53;;;;;;;16.93;8.83;;;5.40;99.90;;;;;;4973154;28;20198;-66
2022/12/28 07:43:20;;;;;;;15.37;8.13;;;5.30;99.90;;;;;;4972923;28;20680;-66
2022/12/28 07:45:49;;;;;;;18.50;9.27;;;5.30;99.90;;;;;;4971394;28;20629;-66
2022/12/28 07:48:16;;;;;;;17.20;8.03;;;5.30;99.90;;;;;;4974610;28;20218;-65
2022/12/28 07:50:43;;;;;;;15.90;8.30;;;5.30;99.90;;;;;;4971999;28;20704;-66
2022/12/28 07:53:10;;;;;;;16.30;8.93;;;5.30;99.90;;;;;;4973172;28;20205;-65
2022/12/28 07:55:39;;;;;;;16.43;8.63;;;5.30;99.90;;;;;;4974232;28;20638;-65
2022/12/28 07:58:06;;;;;;;15.63;8.53;;;5.20;99.90;;;;;;4974530;28;20568;-65
2022/12/28 08:00:34;;;;;;;16.17;8.47;;;5.20;99.90;;;;;;4973076;28;20289;-65
2022/12/28 08:03:02;;;;;;;17.70;8.43;;;5.10;99.90;;;;;;4960847;28;20890;-65
2022/12/28 08:05:29;;;;;;;19.10;8.53;;;5.10;99.90;;;;;;4956628;28;20216;-65
2022/12/28 08:07:56;;;;;;;18.57;9.47;;;5.00;99.90;;;;;;4973893;28;20551;-66
2022/12/28 08:10:23;;;;;;;18.37;8.70;;;5.00;99.90;;;;;;4975466;28;20206;-65
2022/12/28 08:12:51;;;;;;;16.27;8.60;;;5.00;99.90;;;;;;4955199;28;20805;-66
2022/12/28 08:15:18;;;;;;;20.30;9.37;;;5.00;99.90;;;;;;4973640;28;20200;-66
2022/12/28 08:17:45;;;;;;;20.00;9.40;;;5.00;99.90;;;;;;4955494;28;20308;-66
2022/12/28 08:20:14;;;;;;;20.33;9.10;;;5.00;99.90;;;;;;4969359;28;20284;-65
2022/12/28 08:22:41;;;;;;;22.57;9.57;;;5.00;99.90;;;;;;4953603;28;20292;-65
2022/12/28 08:25:09;;;;;;;25.23;9.43;;;5.10;99.90;;;;;;4972528;28;20379;-65
2022/12/28 08:27:36;;;;;;;27.63;10.27;;;5.10;99.90;;;;;;4969203;28;20213;-65
2022/12/28 08:30:04;;;;;;;17.90;8.70;;;5.20;99.90;;;;;;4969988;28;20202;-64
2022/12/28 08:32:31;;;;;;;16.70;7.63;;;5.20;99.90;;;;;;4969917;28;20299;-65
2022/12/28 08:34:59;;;;;;;17.27;6.93;;;5.30;99.90;;;;;;4970660;28;20638;-66
2022/12/28 08:37:27;;;;;;;14.30;7.50;;;5.30;99.90;;;;;;4970892;28;20203;-65
2022/12/28 08:39:54;;;;;;;12.00;6.87;;;5.40;99.90;;;;;;4968062;28;20289;-65
2022/12/28 08:42:21;;;;;;;11.87;7.07;;;5.40;99.90;;;;;;4970867;28;20232;-67
2022/12/28 08:44:49;;;;;;;13.27;7.77;;;5.40;99.90;;;;;;4971181;28;20189;-65
2022/12/28 08:47:16;;;;;;;10.97;6.77;;;5.50;99.90;;;;;;4966551;28;20220;-66
2022/12/28 08:49:43;;;;;;;7.37;5.83;;;5.50;99.90;;;;;;4970827;28;20204;-66
2022/12/28 08:52:10;;;;;;;13.97;7.10;;;5.60;99.90;;;;;;4970729;28;20194;-66
2022/12/28 08:54:39;;;;;;;13.90;7.30;;;5.70;99.90;;;;;;4968299;28;20207;-66
2022/12/28 08:57:06;;;;;;;10.60;6.47;;;5.70;99.90;;;;;;4971342;28;20632;-65
2022/12/28 08:59:33;;;;;;;13.37;6.90;;;5.70;99.90;;;;;;4963958;28;20206;-64
2022/12/28 09:02:00;;;;;;;10.97;6.73;;;5.70;99.90;;;;;;4972674;28;20209;-66
2022/12/28 09:04:30;;;;;;;7.30;5.23;;;5.80;99.90;;;;;;4967027;28;20209;-66
2022/12/28 09:07:00;;;;;;;10.30;6.47;;;5.80;99.90;;;;;;4967018;28;20618;-65
2022/12/28 09:09:35;;;;;;;9.03;5.73;;;5.80;99.90;;;;;;4970116;28;20569;-66
2022/12/28 09:12:06;;;;;;;9.80;5.97;;;5.80;99.90;;;;;;4958142;28;20208;-65
2022/12/28 09:14:33;;;;;;;14.20;6.70;;;5.80;99.90;;;;;;4964512;28;20263;-64
2022/12/28 09:17:00;;;;;;;12.17;7.00;;;5.80;99.90;;;;;;4969352;28;20199;-66
2022/12/28 09:19:28;;;;;;;11.27;7.27;;;5.80;99.90;;;;;;4969846;28;20195;-66
2022/12/28 09:21:55;;;;;;;8.90;6.20;;;5.80;99.90;;;;;;4966522;28;20201;-66
2022/12/28 09:24:23;;;;;;;9.37;6.63;;;5.80;99.90;;;;;;4964328;28;20206;-66
2022/12/28 09:26:51;;;;;;;10.23;6.80;;;5.80;99.90;;;;;;4964871;28;20560;-66
2022/12/28 09:29:20;;;;;;;11.97;7.33;;;5.80;99.90;;;;;;4967943;28;20217;-66
2022/12/28 09:31:47;;;;;;;10.23;6.17;;;5.90;99.90;;;;;;4968670;28;20198;-67
2022/12/28 09:34:14;;;;;;;8.93;6.27;;;5.80;99.90;;;;;;4964014;28;20253;-67
2022/12/28 09:36:43;;;;;;;7.93;5.60;;;5.90;99.90;;;;;;4953983;28;20224;-67
2022/12/28 09:39:12;;;;;;;11.20;7.20;;;5.90;99.90;;;;;;4956310;28;20203;-66
2022/12/28 09:41:44;;;;;;;9.90;6.47;;;5.90;99.90;;;;;;4965191;28;20199;-66
2022/12/28 09:44:42;;;;;;;10.57;6.63;;;5.90;99.90;;;;;;4955933;28;20207;-66
2022/12/28 09:47:18;;;;;;;13.10;7.10;;;6.00;99.90;;;;;;4965925;28;20304;-65
2022/12/28 09:49:54;;;;;;;12.87;6.50;;;6.00;99.90;;;;;;4969294;28;20238;-66
2022/12/28 09:52:29;;;;;;;8.47;5.77;;;6.00;99.90;;;;;;4964895;28;20205;-66
2022/12/28 09:55:01;;;;;;;9.73;5.57;;;6.00;99.90;;;;;;4963598;28;20195;-66
2022/12/28 09:57:36;;;;;;;10.50;6.37;;;6.00;99.90;;;;;;4967864;28;20205;-65
2022/12/28 10:00:15;;;;;;;15.17;7.37;;;6.10;99.90;;;;;;4968009;28;20273;-66
2022/12/28 10:02:45;;;;;;;15.27;7.70;;;6.00;99.90;;;;;;4954456;28;20641;-65
2022/12/28 10:05:12;;;;;;;14.17;7.80;;;6.00;99.90;;;;;;4967929;28;20338;-65
2022/12/28 10:07:39;;;;;;;16.70;7.77;;;6.00;99.90;;;;;;4962768;28;20209;-65
2022/12/28 10:10:07;;;;;;;16.13;8.13;;;6.00;99.90;;;;;;4967055;28;20203;-65
2022/12/28 10:12:35;;;;;;;13.20;7.23;;;6.00;99.90;;;;;;4967488;28;20200;-64
2022/12/28 10:15:02;;;;;;;11.60;7.17;;;6.00;99.90;;;;;;4965445;28;20198;-65
2022/12/28 10:17:30;;;;;;;12.13;6.80;;;6.00;99.90;;;;;;4966884;28;20692;-65
2022/12/28 10:19:59;;;;;;;16.97;8.27;;;6.10;99.90;;;;;;4968014;28;20193;-65
2022/12/28 10:22:32;;;;;;;12.80;7.80;;;6.00;99.90;;;;;;4964678;28;20223;-64
2022/12/28 10:24:59;;;;;;;15.00;7.70;;;6.10;99.90;;;;;;4955235;28;20626;-64
2022/12/28 10:27:31;;;;;;;19.33;8.40;;;6.10;99.90;;;;;;4967469;28;20211;-65
2022/12/28 10:30:02;;;;;;;17.10;8.40;;;6.10;99.90;;;;;;4965217;28;20700;-65
2022/12/28 10:32:49;;;;;;;14.63;8.43;;;6.20;99.90;;;;;;4969226;28;20199;-65
2022/12/28 10:35:26;;;;;;;16.57;8.73;;;6.10;99.90;;;;;;4964198;28;20323;-65
2022/12/28 10:38:00;;;;;;;14.70;7.90;;;6.10;99.90;;;;;;4966446;28;20723;-65
2022/12/28 10:40:31;;;;;;;16.17;8.20;;;6.10;99.90;;;;;;4968315;28;20198;-65
2022/12/28 10:42:59;;;;;;;18.30;8.40;;;6.10;99.90;;;;;;4963623;28;20210;-64
2022/12/28 10:45:35;;;;;;;11.50;6.60;;;6.10;99.90;;;;;;4968088;28;20235;-65
2022/12/28 10:48:10;;;;;;;11.10;6.37;;;6.10;99.90;;;;;;4967901;28;20214;-64
2022/12/28 10:50:43;;;;;;;10.97;5.73;;;6.10;99.90;;;;;;4965415;28;20202;-66
2022/12/28 10:53:18;;;;;;;11.57;6.60;;;6.20;99.90;;;;;;4967363;28;20201;-65
2022/12/28 10:55:45;;;;;;;11.27;5.97;;;6.30;99.90;;;;;;4966669;28;20202;-65
2022/12/28 10:58:20;;;;;;;10.27;6.20;;;6.30;99.90;;;;;;4964655;28;20250;-65
2022/12/28 11:00:55;;;;;;;11.17;6.23;;;6.30;99.90;;;;;;4966938;28;20205;-65
2022/12/28 11:03:29;;;;;;;6.70;4.90;;;6.40;99.90;;;;;;4964803;28;20284;-65
2022/12/28 11:06:14;;;;;;;9.20;4.60;;;6.30;99.90;;;;;;4966898;28;20402;-65
2022/12/28 11:08:44;;;;;;;11.10;5.77;;;6.40;99.90;;;;;;4952337;28;20306;-65
2022/12/28 11:11:19;;;;;;;8.50;5.07;;;6.40;99.90;;;;;;4966679;28;20538;-65
2022/12/28 11:13:54;;;;;;;13.20;5.90;;;6.50;99.90;;;;;;4968157;28;20277;-65
2022/12/28 11:16:21;;;;;;;12.23;5.60;;;6.50;99.90;;;;;;4968250;28;20219;-65
2022/12/28 11:18:50;;;;;;;10.70;5.07;;;6.40;99.90;;;;;;4967702;28;20638;-65
2022/12/28 11:21:20;;;;;;;8.40;5.00;;;6.50;99.90;;;;;;4969143;28;20554;-65
2022/12/28 11:23:49;;;;;;;9.97;4.73;;;6.50;99.90;;;;;;4966029;28;20200;-65
2022/12/28 11:26:16;;;;;;;8.67;4.70;;;6.50;99.90;;;;;;4966729;28;20507;-65
2022/12/28 11:28:46;;;;;;;9.10;5.00;;;6.50;99.90;;;;;;4967677;28;20211;-65
2022/12/28 11:31:21;;;;;;;9.63;4.67;;;6.50;99.90;;;;;;4963449;28;20540;-65
2022/12/28 11:33:52;;;;;;;8.53;4.80;;;6.50;99.90;;;;;;4951046;28;20273;-64
2022/12/28 11:36:22;;;;;;;10.67;5.17;;;6.60;99.90;;;;;;4968382;28;20542;-65
2022/12/28 11:38:52;;;;;;;9.70;5.13;;;6.60;99.90;;;;;;4948866;28;20227;-65
2022/12/28 11:41:49;;;;;;;8.30;4.73;;;6.60;99.90;;;;;;4967193;28;20197;-65
2022/12/28 11:44:22;;;;;;;9.17;4.37;;;6.60;99.90;;;;;;4915565;28;20207;-65
2022/12/28 11:47:19;;;;;;;5.73;3.70;;;6.70;99.90;;;;;;4968808;28;20193;-65
2022/12/28 11:49:48;;;;;;;6.33;4.00;;;6.70;99.90;;;;;;4967875;28;20415;-65
2022/12/28 11:52:45;;;;;;;8.83;4.30;;;6.70;99.90;;;;;;4965836;28;20202;-64
2022/12/28 11:55:47;;;;;;;6.63;3.90;;;6.70;99.90;;;;;;4972227;28;20194;-65
2022/12/28 11:58:53;;;;;;;8.77;4.43;;;6.80;99.90;;;;;;4967109;28;20281;-65
2022/12/28 12:01:49;;;;;;;11.43;4.20;;;6.80;99.90;;;;;;4972215;28;20190;-65
2022/12/28 12:04:47;;;;;;;7.30;4.00;;;6.80;99.90;;;;;;4969407;28;20662;-65
2022/12/28 12:07:22;;;;;;;7.20;3.93;;;6.90;99.90;;;;;;4952620;29;20200;-66
2022/12/28 12:10:05;;;;;;;7.57;4.33;;;6.80;99.90;;;;;;4941255;29;20213;-65
2022/12/28 12:12:46;;;;;;;8.70;4.07;;;6.80;99.90;;;;;;4932240;29;20294;-65
2022/12/28 12:15:17;;;;;;;7.13;4.23;;;6.80;99.90;;;;;;4950706;29;20537;-66
2022/12/28 12:17:48;;;;;;;6.40;3.40;;;6.90;99.90;;;;;;4948512;28;20198;-66
2022/12/28 12:20:37;;;;;;;7.70;3.60;;;6.90;99.90;;;;;;4953429;28;20591;-66
2022/12/28 12:23:08;;;;;;;8.57;3.90;;;6.90;99.90;;;;;;4939240;29;20197;-65
2022/12/28 12:25:40;;;;;;;7.27;4.00;;;6.90;99.90;;;;;;4943032;28;20329;-65
2022/12/28 12:28:15;;;;;;;7.50;3.40;;;6.90;99.90;;;;;;4949286;29;20198;-66
2022/12/28 12:30:44;;;;;;;6.70;3.93;;;7.00;99.90;;;;;;4950681;28;20550;-66
2022/12/28 12:33:15;;;;;;;8.57;3.87;;;7.00;99.90;;;;;;4948333;28;20227;-66
2022/12/28 12:35:57;;;;;;;8.20;4.23;;;7.00;99.90;;;;;;4932977;29;20308;-66
2022/12/28 12:38:36;;;;;;;5.10;3.50;;;7.00;99.90;;;;;;4934789;29;20666;-65
2022/12/28 12:41:22;;;;;;;6.80;3.97;;;7.00;99.90;;;;;;4949399;28;20192;-66
2022/12/28 12:44:01;;;;;;;9.33;4.23;;;7.00;99.90;;;;;;4949578;29;20194;-65
2022/12/28 12:47:05;;;;;;;9.43;4.37;;;7.00;99.90;;;;;;4948121;28;20209;-66
2022/12/28 12:49:53;;;;;;;10.60;4.57;;;7.00;99.90;;;;;;4908108;28;20736;-66
2022/12/28 12:52:33;;;;;;;10.43;4.47;;;7.10;99.90;;;;;;4947024;28;20200;-66
2022/12/28 12:55:21;;;;;;;8.73;4.37;;;7.00;99.90;;;;;;4948435;29;20223;-66
2022/12/28 12:57:57;;;;;;;8.97;4.27;;;7.00;99.90;;;;;;4949130;28;20201;-66
2022/12/28 13:00:31;;;;;;;9.03;4.40;;;7.00;99.90;;;;;;4949422;28;20226;-65
2022/12/28 13:03:16;;;;;;;7.50;4.20;;;7.00;99.90;;;;;;4949269;29;20531;-67
2022/12/28 13:05:54;;;;;;;10.57;4.27;;;7.10;99.90;;;;;;4927285;29;20197;-66
2022/12/28 13:08:25;;;;;;;8.37;4.23;;;7.10;99.90;;;;;;4950316;29;20391;-67
2022/12/28 13:10:55;;;;;;;5.67;3.67;;;7.10;99.90;;;;;;4949707;29;20729;-67
2022/12/28 13:13:32;;;;;;;5.47;3.73;;;7.10;99.90;;;;;;4941014;28;20202;-65
2022/12/28 13:16:02;;;;;;;8.20;4.40;;;7.10;99.90;;;;;;4950014;28;20196;-66
2022/12/28 13:18:30;;;;;;;12.33;5.27;;;7.10;99.90;;;;;;4947288;28;20682;-65
2022/12/28 13:20:59;;;;;;;11.23;4.20;;;7.20;99.90;;;;;;4948311;28;20726;-64
2022/12/28 13:23:27;;;;;;;11.73;5.07;;;7.00;99.90;;;;;;4937623;29;20213;-65
2022/12/28 13:25:59;;;;;;;9.73;4.53;;;7.20;99.90;;;;;;4945491;28;20215;-65
2022/12/28 13:28:29;;;;;;;8.17;4.23;;;7.20;99.90;;;;;;4947663;29;20205;-65
2022/12/28 13:31:07;;;;;;;10.27;4.43;;;7.20;99.90;;;;;;4947630;28;20327;-64
2022/12/28 13:33:35;;;;;;;7.80;4.70;;;7.20;99.90;;;;;;4946634;28;20211;-64
2022/12/28 13:36:17;;;;;;;9.63;4.20;;;7.20;99.90;;;;;;4948943;28;20264;-64
2022/12/28 13:38:44;;;;;;;11.77;4.13;;;7.20;99.90;;;;;;4947097;28;20287;-65
2022/12/28 13:41:21;;;;;;;6.20;3.60;;;7.20;99.90;;;;;;4948299;28;20188;-65